createdAt,value
2022-12-23T00:01:43.129Z,0.87
2022-12-23T00:04:30.728Z,1.00
2022-12-23T00:07:18.604Z,0.60
2022-12-23T00:10:06.279Z,0.80
2022-12-23T00:13:12.539Z,0.80
2022-12-23T00:16:04.075Z,1.90
2022-12-23T00:18:52.133Z,0.70
2022-12-23T00:21:39.527Z,0.73
2022-12-23T00:24:26.935Z,0.80
2022-12-23T00:27:14.828Z,0.80
2022-12-23T00:30:02.203Z,0.80
2022-12-23T00:32:49.986Z,0.93
2022-12-23T00:35:37.905Z,1.07
2022-12-23T00:38:44.343Z,0.80
2022-12-23T00:41:51.020Z,1.20
2022-12-23T00:44:38.444Z,1.00
2022-12-23T00:47:44.598Z,0.93
2022-12-23T00:50:32.138Z,1.00
2022-12-23T00:53:20.407Z,0.70
2022-12-23T00:56:08.325Z,0.90
2022-12-23T00:58:55.739Z,1.10
2022-12-23T01:02:02.358Z,1.40
2022-12-23T01:05:08.626Z,1.60
2022-12-23T01:07:56.416Z,1.37
2022-12-23T01:10:43.702Z,1.10
2022-12-23T01:13:31.643Z,0.93
2022-12-23T01:16:18.986Z,0.93
2022-12-23T01:19:07.685Z,0.70
2022-12-23T01:21:55.080Z,0.70
2022-12-23T01:24:42.928Z,0.70
2022-12-23T01:27:30.319Z,0.70
2022-12-23T01:30:17.856Z,0.80
2022-12-23T01:33:05.646Z,0.70
2022-12-23T01:35:53.041Z,0.50
2022-12-23T01:38:41.029Z,0.80
2022-12-23T01:41:48.949Z,0.97
2022-12-23T01:44:54.461Z,0.70
2022-12-23T01:47:55.801Z,0.80
2022-12-23T01:50:50.103Z,0.90
2022-12-23T01:53:43.165Z,0.73
2022-12-23T01:56:34.377Z,0.97
2022-12-23T01:59:40.807Z,0.50
2022-12-23T02:02:47.879Z,0.80
2022-12-23T02:05:35.883Z,0.60
2022-12-23T02:08:41.830Z,0.83
2022-12-23T02:11:41.995Z,0.73
2022-12-23T02:14:53.966Z,0.63
2022-12-23T02:17:44.609Z,0.70
2022-12-23T02:20:53.533Z,0.60
2022-12-23T02:23:47.565Z,0.60
2022-12-23T02:26:44.466Z,0.50
2022-12-23T02:29:31.655Z,0.40
2022-12-23T02:32:31.707Z,0.30
2022-12-23T02:35:33.095Z,0.30
2022-12-23T02:38:23.297Z,0.30
2022-12-23T02:41:32.733Z,0.50
2022-12-23T02:44:20.397Z,0.40
2022-12-23T02:47:12.286Z,0.50
2022-12-23T02:50:04.496Z,0.50
2022-12-23T02:52:52.629Z,0.40
2022-12-23T02:55:41.389Z,0.40
2022-12-23T02:58:32.320Z,0.40
2022-12-23T03:01:20.914Z,0.40
2022-12-23T03:04:08.153Z,0.67
2022-12-23T03:06:56.919Z,0.30
2022-12-23T03:09:50.808Z,0.50
2022-12-23T03:12:46.880Z,0.40
2022-12-23T03:15:39.819Z,0.40
2022-12-23T03:18:37.705Z,0.50
2022-12-23T03:21:40.149Z,0.50
2022-12-23T03:24:41.156Z,0.63
2022-12-23T03:27:34.604Z,0.60
2022-12-23T03:30:24.003Z,0.40
2022-12-23T03:33:17.393Z,0.40
2022-12-23T03:36:11.794Z,0.30
2022-12-23T03:39:00.000Z,0.50
2022-12-23T03:41:49.967Z,0.57
2022-12-23T03:44:38.951Z,0.40
2022-12-23T03:47:31.426Z,0.40
2022-12-23T03:50:20.604Z,0.53
2022-12-23T03:53:19.905Z,0.40
2022-12-23T03:56:09.580Z,0.40
2022-12-23T03:58:59.131Z,0.40
2022-12-23T04:01:49.906Z,0.40
2022-12-23T04:04:40.349Z,0.50
2022-12-23T04:07:32.357Z,0.40
2022-12-23T04:10:20.523Z,0.40
2022-12-23T04:13:08.504Z,0.40
2022-12-23T04:15:57.823Z,0.43
2022-12-23T04:18:45.724Z,0.40
2022-12-23T04:21:33.153Z,0.50
2022-12-23T04:24:21.031Z,0.60
2022-12-23T04:27:08.991Z,0.40
2022-12-23T04:29:56.741Z,0.40
2022-12-23T04:32:44.683Z,0.30
2022-12-23T04:35:32.215Z,0.40
2022-12-23T04:38:19.572Z,0.30
2022-12-23T04:41:06.985Z,0.33
2022-12-23T04:43:54.908Z,0.40
2022-12-23T04:46:42.703Z,0.40
2022-12-23T04:49:31.422Z,0.40
2022-12-23T04:52:19.345Z,0.40
2022-12-23T04:55:07.014Z,0.30
2022-12-23T04:57:54.720Z,0.40
2022-12-23T05:00:42.081Z,0.70
2022-12-23T05:03:29.745Z,0.50
2022-12-23T05:06:17.567Z,0.40
2022-12-23T05:09:05.495Z,0.40
2022-12-23T05:11:53.386Z,0.40
2022-12-23T05:14:40.657Z,0.30
2022-12-23T05:17:28.550Z,0.40
2022-12-23T05:20:15.882Z,0.50
2022-12-23T05:23:03.787Z,0.40
2022-12-23T05:25:55.491Z,0.40
2022-12-23T05:28:45.496Z,0.40
2022-12-23T05:31:33.475Z,0.30
2022-12-23T05:34:21.440Z,0.30
2022-12-23T05:37:08.865Z,0.30
2022-12-23T05:39:56.808Z,0.50
2022-12-23T05:42:44.751Z,0.40
2022-12-23T05:45:32.680Z,0.40
2022-12-23T05:48:20.081Z,0.50
2022-12-23T05:51:07.956Z,0.50
2022-12-23T05:53:55.136Z,0.40
2022-12-23T05:56:43.033Z,0.30
2022-12-23T05:59:31.730Z,0.27
2022-12-23T06:02:22.063Z,0.40
2022-12-23T06:05:11.184Z,0.40
2022-12-23T06:07:59.084Z,0.40
2022-12-23T06:10:47.106Z,0.40
2022-12-23T06:13:34.525Z,0.40
2022-12-23T06:16:22.611Z,0.40
2022-12-23T06:19:10.098Z,0.43
2022-12-23T06:21:57.874Z,0.50
2022-12-23T06:24:45.926Z,0.30
2022-12-23T06:27:33.334Z,0.50
2022-12-23T06:30:21.271Z,0.70
2022-12-23T06:33:08.537Z,0.40
2022-12-23T06:35:56.317Z,0.37
2022-12-23T06:38:43.977Z,0.50
2022-12-23T06:41:31.893Z,0.40
2022-12-23T06:44:19.105Z,0.40
2022-12-23T06:47:06.894Z,0.33
2022-12-23T06:49:54.843Z,0.40
2022-12-23T06:52:42.738Z,0.53
2022-12-23T06:55:30.685Z,0.43
2022-12-23T06:58:17.975Z,0.60
2022-12-23T07:01:05.467Z,0.60
2022-12-23T07:03:52.897Z,0.50
2022-12-23T07:06:40.250Z,0.50
2022-12-23T07:09:27.833Z,0.60
2022-12-23T07:12:15.292Z,0.50
2022-12-23T07:15:02.905Z,0.47
2022-12-23T07:17:50.189Z,1.13
2022-12-23T07:20:42.664Z,0.40
2022-12-23T07:23:30.793Z,0.50
2022-12-23T07:26:18.262Z,0.40
2022-12-23T07:29:05.658Z,0.60
2022-12-23T07:31:53.367Z,0.53
2022-12-23T07:34:41.274Z,0.30
2022-12-23T07:37:28.476Z,0.50
2022-12-23T07:40:16.455Z,0.50
2022-12-23T07:43:03.947Z,0.60
2022-12-23T07:45:55.740Z,0.50
2022-12-23T07:48:47.016Z,0.40
2022-12-23T07:51:35.015Z,0.50
2022-12-23T07:54:23.965Z,0.60
2022-12-23T07:57:11.749Z,0.50
2022-12-23T07:59:59.179Z,0.57
2022-12-23T08:02:46.786Z,0.40
2022-12-23T08:05:34.656Z,0.30
2022-12-23T08:08:22.457Z,0.40
2022-12-23T08:11:11.072Z,0.40
2022-12-23T08:13:58.533Z,0.53
2022-12-23T08:16:46.345Z,0.40
2022-12-23T08:19:34.011Z,0.40
2022-12-23T08:22:21.361Z,0.53
2022-12-23T08:25:08.831Z,0.40
2022-12-23T08:27:56.115Z,0.30
2022-12-23T08:30:43.954Z,0.33
2022-12-23T08:33:31.916Z,0.40
2022-12-23T08:36:23.334Z,0.40
2022-12-23T08:39:11.743Z,0.40
2022-12-23T08:41:59.185Z,0.50
2022-12-23T08:44:46.580Z,0.47
2022-12-23T08:51:23.022Z,0.30
2022-12-23T08:54:11.176Z,0.40
2022-12-23T08:56:58.360Z,0.40
2022-12-23T08:59:47.415Z,0.40
2022-12-23T09:02:35.006Z,0.40
2022-12-23T09:05:23.043Z,0.40
2022-12-23T09:08:10.678Z,0.50
2022-12-23T09:10:57.984Z,0.50
2022-12-23T09:13:45.698Z,0.47
2022-12-23T09:16:33.630Z,0.40
2022-12-23T09:19:21.630Z,0.40
2022-12-23T09:22:09.964Z,0.60
2022-12-23T09:25:03.239Z,0.40
2022-12-23T09:27:52.361Z,0.70
2022-12-23T09:30:40.343Z,0.60
2022-12-23T09:33:27.619Z,0.50
2022-12-23T09:36:15.182Z,0.40
2022-12-23T09:39:02.499Z,0.50
2022-12-23T09:41:56.427Z,0.60
2022-12-23T09:44:55.495Z,0.40
2022-12-23T09:47:44.090Z,0.50
2022-12-23T09:50:32.769Z,0.47
2022-12-23T09:53:21.749Z,0.40
2022-12-23T09:56:16.856Z,0.53
2022-12-23T09:59:07.845Z,0.40
2022-12-23T10:02:14.604Z,0.32
2022-12-23T10:05:17.903Z,0.50
2022-12-23T10:08:05.218Z,0.47
2022-12-23T10:10:57.877Z,0.40
2022-12-23T10:13:56.454Z,0.38
2022-12-23T10:16:45.774Z,0.60
2022-12-23T10:19:42.181Z,0.70
2022-12-23T10:22:29.531Z,0.63
2022-12-23T10:25:21.117Z,0.63
2022-12-23T10:28:09.929Z,0.50
2022-12-23T10:34:23.554Z,0.70
2022-12-23T10:37:15.721Z,0.55
2022-12-23T10:40:06.040Z,0.50
2022-12-23T10:42:53.387Z,0.60
2022-12-23T10:46:02.444Z,0.80
2022-12-23T10:48:53.039Z,0.60
2022-12-23T10:51:43.362Z,0.60
2022-12-23T10:54:35.785Z,0.80
2022-12-23T10:57:24.675Z,0.80
2022-12-23T11:00:17.625Z,0.65
2022-12-23T11:03:07.919Z,0.97
2022-12-23T11:05:56.666Z,0.70
2022-12-23T11:08:44.386Z,0.60
2022-12-23T11:11:51.627Z,0.67
2022-12-23T11:14:43.707Z,0.60
2022-12-23T11:17:33.263Z,0.52
2022-12-23T11:20:20.728Z,0.60
2022-12-23T11:23:24.628Z,0.60
2022-12-23T11:26:13.539Z,0.70
2022-12-23T11:29:05.534Z,0.50
2022-12-23T11:31:53.099Z,0.60
2022-12-23T11:34:45.310Z,0.50
2022-12-23T11:37:55.506Z,0.60
2022-12-23T11:40:47.170Z,0.70
2022-12-23T11:43:35.529Z,0.70
2022-12-23T11:46:28.954Z,0.40
2022-12-23T11:49:16.492Z,0.57
2022-12-23T11:52:03.689Z,0.73
2022-12-23T11:54:55.740Z,0.60
2022-12-23T11:57:48.692Z,0.68
2022-12-23T12:00:55.393Z,0.63
2022-12-23T12:03:47.597Z,0.70
2022-12-23T12:06:35.418Z,0.70
2022-12-23T12:09:23.808Z,0.60
2022-12-23T12:12:16.438Z,0.80
2022-12-23T12:15:04.155Z,1.10
2022-12-23T12:17:52.219Z,0.90
2022-12-23T12:20:41.564Z,1.20
2022-12-23T12:23:43.952Z,0.60
2022-12-23T12:26:34.939Z,0.60
2022-12-23T12:29:41.694Z,0.47
2022-12-23T12:32:51.696Z,0.40
2022-12-23T12:35:43.886Z,0.40
2022-12-23T12:38:32.614Z,0.47
2022-12-23T12:41:24.348Z,0.30
2022-12-23T12:44:27.197Z,0.40
2022-12-23T12:50:34.153Z,0.47
2022-12-23T12:53:22.961Z,0.43
2022-12-23T12:56:17.281Z,0.40
2022-12-23T12:59:19.622Z,0.40
2022-12-23T13:02:29.306Z,0.40
2022-12-23T13:05:20.791Z,0.60
2022-12-23T13:08:24.176Z,0.60
2022-12-23T13:11:30.273Z,0.30
2022-12-23T13:14:34.489Z,0.50
2022-12-23T13:17:43.063Z,0.30
2022-12-23T13:20:36.902Z,0.53
2022-12-23T13:23:50.224Z,0.50
2022-12-23T13:26:39.451Z,0.80
2022-12-23T13:29:43.749Z,0.50
2022-12-23T13:32:34.220Z,0.30
2022-12-23T13:35:22.019Z,0.50
2022-12-23T13:38:09.266Z,0.50
2022-12-23T13:41:16.007Z,0.37
2022-12-23T13:44:07.782Z,0.60
2022-12-23T13:47:04.379Z,0.40
2022-12-23T13:50:00.724Z,0.53
2022-12-23T13:53:11.793Z,0.60
2022-12-23T13:55:59.065Z,0.43
2022-12-23T13:58:50.998Z,0.50
2022-12-23T14:01:41.483Z,0.50
2022-12-23T14:04:29.313Z,0.70
2022-12-23T14:07:16.659Z,0.70
2022-12-23T14:10:22.020Z,0.60
2022-12-23T14:13:09.338Z,0.80
2022-12-23T14:15:56.605Z,0.60
2022-12-23T14:18:59.662Z,0.70
2022-12-23T14:21:50.393Z,0.60
2022-12-23T14:24:56.577Z,0.60
2022-12-23T14:27:48.956Z,0.60
2022-12-23T14:30:37.445Z,0.60
2022-12-23T14:33:26.991Z,0.43
2022-12-23T14:36:24.304Z,0.30
2022-12-23T14:39:15.284Z,0.87
2022-12-23T14:42:07.420Z,0.40
2022-12-23T14:45:16.956Z,0.50
2022-12-23T14:48:24.390Z,0.57
2022-12-23T14:51:12.103Z,0.53
2022-12-23T14:53:59.492Z,0.80
2022-12-23T14:56:47.292Z,0.90
2022-12-23T14:59:41.729Z,0.90
2022-12-23T15:02:34.956Z,0.53
2022-12-23T15:05:23.476Z,0.90
2022-12-23T15:08:22.841Z,0.70
2022-12-23T15:11:16.009Z,0.80
2022-12-23T15:14:05.125Z,0.80
2022-12-23T15:16:52.469Z,0.90
2022-12-23T15:19:44.693Z,0.57
2022-12-23T15:22:32.864Z,0.60
2022-12-23T15:25:23.327Z,0.70
2022-12-23T15:28:21.284Z,0.73
2022-12-23T15:31:20.571Z,0.80
2022-12-23T15:34:16.555Z,0.77
2022-12-23T15:37:04.740Z,0.90
2022-12-23T15:39:57.974Z,0.60
2022-12-23T15:42:49.080Z,0.80
2022-12-23T15:45:37.996Z,0.63
2022-12-23T15:48:32.727Z,0.80
2022-12-23T15:52:05.632Z,0.70
2022-12-23T15:54:46.503Z,0.60
2022-12-23T15:57:33.906Z,0.70
2022-12-23T16:00:25.345Z,0.80
2022-12-23T16:03:24.628Z,0.73
2022-12-23T16:06:18.181Z,0.90
2022-12-23T16:09:17.745Z,0.93
2022-12-23T16:12:25.393Z,0.80
2022-12-23T16:15:29.816Z,0.83
2022-12-23T16:18:20.144Z,0.87
2022-12-23T16:21:12.403Z,0.97
2022-12-23T16:24:00.300Z,0.90
2022-12-23T16:26:48.107Z,0.70
2022-12-23T16:29:35.661Z,1.00
2022-12-23T16:32:26.466Z,1.47
2022-12-23T16:35:24.821Z,1.13
2022-12-23T16:38:18.352Z,0.90
2022-12-23T16:41:06.365Z,0.50
2022-12-23T16:43:54.590Z,0.60
2022-12-23T16:46:48.029Z,0.80
2022-12-23T16:49:36.818Z,0.50
2022-12-23T16:52:24.993Z,0.70
2022-12-23T16:55:14.281Z,0.60
2022-12-23T16:58:02.168Z,0.43
2022-12-23T17:00:50.220Z,0.63
2022-12-23T17:03:39.369Z,0.80
2022-12-23T17:06:26.645Z,0.50
2022-12-23T17:09:14.655Z,0.70
2022-12-23T17:12:02.387Z,0.50
2022-12-23T17:14:50.312Z,0.50
2022-12-23T17:17:45.688Z,0.70
2022-12-23T17:20:33.293Z,0.53
2022-12-23T17:23:26.889Z,0.80
2022-12-23T17:26:15.417Z,0.50
2022-12-23T17:29:29.884Z,0.60
2022-12-23T17:32:18.557Z,0.60
2022-12-23T17:35:06.178Z,0.70
2022-12-23T17:37:54.284Z,0.73
2022-12-23T17:40:41.792Z,1.17
2022-12-23T17:43:29.801Z,0.60
2022-12-23T17:46:17.136Z,0.60
2022-12-23T17:49:05.123Z,0.70
2022-12-23T17:51:52.382Z,0.77
2022-12-23T17:54:40.410Z,0.70
2022-12-23T17:57:28.419Z,0.70
2022-12-23T18:00:22.674Z,0.80
2022-12-23T18:03:23.163Z,0.70
2022-12-23T18:06:13.353Z,0.80
2022-12-23T18:08:59.193Z,0.50
2022-12-23T18:11:47.300Z,0.60
2022-12-23T18:14:34.785Z,0.50
2022-12-23T18:17:22.217Z,0.47
2022-12-23T18:20:14.540Z,0.57
2022-12-23T18:23:02.147Z,0.60
2022-12-23T18:25:49.989Z,0.50
2022-12-23T18:28:37.394Z,0.63
2022-12-23T18:31:25.680Z,0.70
2022-12-23T18:34:17.233Z,0.50
2022-12-23T18:37:05.094Z,2.47
2022-12-23T18:39:52.516Z,1.30
2022-12-23T18:42:40.220Z,0.50
2022-12-23T18:45:35.217Z,0.60
2022-12-23T18:48:22.700Z,0.47
2022-12-23T18:51:17.199Z,0.70
2022-12-23T18:54:04.701Z,0.63
2022-12-23T18:56:52.211Z,0.50
2022-12-23T18:59:40.253Z,0.50
2022-12-23T19:02:27.726Z,0.73
2022-12-23T19:05:23.338Z,0.70
2022-12-23T19:08:11.252Z,0.70
2022-12-23T19:10:58.643Z,0.57
2022-12-23T19:13:46.201Z,0.40
2022-12-23T19:16:34.216Z,0.73
2022-12-23T19:19:22.422Z,0.60
2022-12-23T19:22:09.895Z,0.70
2022-12-23T19:25:05.368Z,0.70
2022-12-23T19:27:54.070Z,0.40
2022-12-23T19:30:42.388Z,0.53
2022-12-23T19:33:29.880Z,0.70
2022-12-23T19:36:19.078Z,0.40
2022-12-23T19:39:06.907Z,0.57
2022-12-23T19:41:54.581Z,0.50
2022-12-23T19:44:42.490Z,0.57
2022-12-23T19:47:29.915Z,0.80
2022-12-23T19:50:18.835Z,2.27
2022-12-23T19:53:06.737Z,1.10
2022-12-23T19:56:00.815Z,0.98
2022-12-23T19:58:49.058Z,0.60
2022-12-23T20:01:36.651Z,0.67
2022-12-23T20:04:24.960Z,0.63
2022-12-23T20:07:12.434Z,0.50
2022-12-23T20:09:59.937Z,0.40
2022-12-23T20:12:47.820Z,0.50
2022-12-23T20:15:35.725Z,0.50
2022-12-23T20:18:23.155Z,0.33
2022-12-23T20:21:10.376Z,0.37
2022-12-23T20:23:58.013Z,0.40
2022-12-23T20:26:45.519Z,0.47
2022-12-23T20:29:32.933Z,0.40
2022-12-23T20:32:20.338Z,0.40
2022-12-23T20:35:07.907Z,0.43
2022-12-23T20:37:55.327Z,0.40
2022-12-23T20:40:42.710Z,0.50
2022-12-23T20:43:30.974Z,0.52
2022-12-23T20:46:19.100Z,0.60
2022-12-23T20:49:07.001Z,0.50
2022-12-23T20:51:54.394Z,0.65
2022-12-23T20:54:42.264Z,0.40
2022-12-23T20:57:29.707Z,0.50
2022-12-23T21:00:17.357Z,0.80
2022-12-23T21:03:10.240Z,0.47
2022-12-23T21:05:58.224Z,0.73
2022-12-23T21:08:45.672Z,0.60
2022-12-23T21:11:34.809Z,0.93
2022-12-23T21:14:22.290Z,0.80
2022-12-23T21:17:09.675Z,0.60
2022-12-23T21:19:59.326Z,0.60
2022-12-23T21:22:48.348Z,0.77
2022-12-23T21:25:35.900Z,0.40
2022-12-23T21:28:23.301Z,0.23
2022-12-23T21:31:10.810Z,0.50
2022-12-23T21:33:59.151Z,0.50
2022-12-23T21:36:46.567Z,0.40
2022-12-23T21:39:33.990Z,0.60
2022-12-23T21:42:21.874Z,0.57
2022-12-23T21:45:10.114Z,0.60
2022-12-23T21:47:57.480Z,0.60
2022-12-23T21:50:44.968Z,0.60
2022-12-23T21:53:32.997Z,0.40
2022-12-23T21:56:22.277Z,0.50
2022-12-23T21:59:13.498Z,0.60
2022-12-23T22:02:00.997Z,0.60
2022-12-23T22:04:48.433Z,0.60
2022-12-23T22:07:36.298Z,0.80
2022-12-23T22:10:23.761Z,0.70
2022-12-23T22:13:11.646Z,0.83
2022-12-23T22:15:59.080Z,0.77
2022-12-23T22:18:47.047Z,1.10
2022-12-23T22:21:35.290Z,0.87
2022-12-23T22:24:23.163Z,0.80
2022-12-23T22:27:10.569Z,0.83
2022-12-23T22:29:58.550Z,1.00
2022-12-23T22:32:45.959Z,1.20
2022-12-23T22:35:33.845Z,1.17
2022-12-23T22:38:21.741Z,1.10
2022-12-23T22:41:10.571Z,1.17
2022-12-23T22:43:59.110Z,1.00
2022-12-23T22:46:46.760Z,0.83
2022-12-23T22:49:34.437Z,1.10
2022-12-23T22:52:22.307Z,1.40
2022-12-23T22:55:10.319Z,1.20
2022-12-23T22:57:57.743Z,1.30
2022-12-23T23:00:45.425Z,1.13
2022-12-23T23:03:33.449Z,1.10
2022-12-23T23:06:21.327Z,1.00
2022-12-23T23:09:10.032Z,0.90
2022-12-23T23:11:57.967Z,0.80
2022-12-23T23:14:54.497Z,1.10
2022-12-23T23:17:42.410Z,1.33
2022-12-23T23:20:29.919Z,1.33
2022-12-23T23:23:18.029Z,1.97
2022-12-23T23:26:06.740Z,1.70
2022-12-23T23:28:54.979Z,1.27
2022-12-23T23:31:44.046Z,1.00
2022-12-23T23:34:32.239Z,0.80
2022-12-23T23:37:20.205Z,1.67
2022-12-23T23:40:07.963Z,0.90
2022-12-23T23:42:55.888Z,0.97
2022-12-23T23:45:44.025Z,0.90
2022-12-23T23:48:31.304Z,0.80
2022-12-23T23:51:19.088Z,0.83
2022-12-23T23:54:06.745Z,0.77
2022-12-23T23:56:54.616Z,0.60
2022-12-23T23:59:42.495Z,0.80
